createdAt,value
2023-02-02T00:01:37.334Z,12.60
2023-02-02T00:04:04.681Z,11.40
2023-02-02T00:06:33.296Z,10.40
2023-02-02T00:09:02.325Z,10.87
2023-02-02T00:11:29.464Z,5.83
2023-02-02T00:13:56.660Z,8.70
2023-02-02T00:16:35.482Z,11.10
2023-02-02T00:19:12.906Z,10.13
2023-02-02T00:21:40.503Z,5.07
2023-02-02T00:24:09.683Z,9.43
2023-02-02T00:26:38.083Z,6.90
2023-02-02T00:29:06.446Z,8.83
2023-02-02T00:31:34.647Z,14.77
2023-02-02T00:34:01.944Z,6.33
2023-02-02T00:36:29.171Z,7.90
2023-02-02T00:38:56.796Z,9.87
2023-02-02T00:41:24.084Z,12.83
2023-02-02T00:44:12.456Z,6.43
2023-02-02T00:46:40.655Z,9.10
2023-02-02T00:49:08.803Z,9.50
2023-02-02T00:51:37.051Z,11.60
2023-02-02T00:54:04.696Z,17.93
2023-02-02T00:56:35.500Z,12.43
2023-02-02T00:59:03.450Z,7.47
2023-02-02T01:01:31.383Z,10.20
2023-02-02T01:03:58.968Z,15.10
2023-02-02T01:06:26.557Z,13.27
2023-02-02T01:08:54.696Z,8.00
2023-02-02T01:11:22.402Z,11.33
2023-02-02T01:13:49.552Z,13.47
2023-02-02T01:16:17.197Z,8.10
2023-02-02T01:18:44.657Z,9.33
2023-02-02T01:21:13.148Z,8.20
2023-02-02T01:23:41.296Z,8.67
2023-02-02T01:26:10.916Z,9.03
2023-02-02T01:28:39.338Z,15.10
2023-02-02T01:31:13.016Z,13.80
2023-02-02T01:33:41.650Z,8.90
2023-02-02T01:36:12.589Z,10.40
2023-02-02T01:38:40.982Z,10.27
2023-02-02T01:41:12.006Z,14.83
2023-02-02T01:43:44.891Z,10.97
2023-02-02T01:46:17.169Z,14.50
2023-02-02T01:48:49.439Z,19.53
2023-02-02T01:51:20.740Z,17.60
2023-02-02T01:53:50.824Z,12.20
2023-02-02T01:56:25.617Z,9.50
2023-02-02T01:58:53.189Z,8.83
2023-02-02T02:01:21.217Z,12.03
2023-02-02T02:03:48.392Z,11.67
2023-02-02T02:06:18.703Z,7.30
2023-02-02T02:08:52.153Z,18.00
2023-02-02T02:11:22.241Z,9.20
2023-02-02T02:14:09.651Z,10.70
2023-02-02T02:16:49.344Z,10.90
2023-02-02T02:20:06.606Z,13.57
2023-02-02T02:23:25.934Z,11.50
2023-02-02T02:26:30.105Z,11.27
2023-02-02T02:29:06.581Z,9.50
2023-02-02T02:31:58.378Z,14.27
2023-02-02T02:34:39.311Z,12.17
2023-02-02T02:37:18.434Z,12.17
2023-02-02T02:40:11.000Z,13.93
2023-02-02T02:42:43.221Z,12.20
2023-02-02T02:45:12.417Z,17.70
2023-02-02T02:47:41.973Z,14.77
2023-02-02T02:50:10.203Z,11.47
2023-02-02T02:52:38.512Z,14.30
2023-02-02T02:55:08.575Z,10.53
2023-02-02T02:57:50.116Z,8.43
2023-02-02T03:00:41.917Z,16.97
2023-02-02T03:03:34.506Z,11.20
2023-02-02T03:06:29.359Z,11.00
2023-02-02T03:09:08.711Z,10.50
2023-02-02T03:11:36.097Z,13.70
2023-02-02T03:14:04.345Z,11.50
2023-02-02T03:16:31.508Z,17.57
2023-02-02T03:18:59.001Z,5.80
2023-02-02T03:21:26.233Z,8.73
2023-02-02T03:23:53.400Z,14.07
2023-02-02T03:26:21.557Z,16.33
2023-02-02T03:28:51.320Z,12.10
2023-02-02T03:31:18.795Z,9.70
2023-02-02T03:33:45.989Z,9.20
2023-02-02T03:36:13.746Z,10.20
2023-02-02T03:38:40.946Z,11.87
2023-02-02T03:41:08.558Z,22.10
2023-02-02T03:43:35.724Z,12.63
2023-02-02T03:46:04.956Z,8.90
2023-02-02T03:48:36.593Z,7.43
2023-02-02T03:51:09.221Z,10.13
2023-02-02T03:53:36.370Z,8.47
2023-02-02T03:56:04.564Z,8.27
2023-02-02T03:58:31.749Z,11.77
2023-02-02T04:01:08.309Z,13.67
2023-02-02T04:03:35.822Z,7.57
2023-02-02T04:06:03.075Z,8.57
2023-02-02T04:08:55.423Z,5.10
2023-02-02T04:11:22.568Z,5.87
2023-02-02T04:13:49.808Z,9.53
2023-02-02T04:16:17.216Z,10.77
2023-02-02T04:18:44.528Z,7.20
2023-02-02T04:21:11.701Z,6.87
2023-02-02T04:23:39.356Z,6.97
2023-02-02T04:26:06.672Z,7.07
2023-02-02T04:28:34.059Z,5.27
2023-02-02T04:31:01.399Z,10.97
2023-02-02T04:33:29.116Z,11.90
2023-02-02T04:35:56.328Z,4.17
2023-02-02T04:38:23.591Z,14.40
2023-02-02T04:40:50.883Z,7.57
2023-02-02T04:43:18.530Z,10.83
2023-02-02T04:45:45.739Z,9.57
2023-02-02T04:48:12.955Z,10.50
2023-02-02T04:50:40.136Z,15.03
2023-02-02T04:53:07.380Z,21.87
2023-02-02T04:55:38.753Z,16.93
2023-02-02T04:58:06.053Z,21.50
2023-02-02T05:00:33.594Z,17.00
2023-02-02T05:03:01.401Z,20.20
2023-02-02T05:05:28.599Z,17.87
2023-02-02T05:07:55.787Z,16.23
2023-02-02T05:10:22.994Z,18.30
2023-02-02T05:12:52.944Z,21.80
2023-02-02T05:15:23.902Z,16.53
2023-02-02T05:17:51.199Z,18.07
2023-02-02T05:20:18.602Z,9.93
2023-02-02T05:22:49.736Z,12.40
2023-02-02T05:25:17.183Z,14.57
2023-02-02T05:27:45.408Z,13.70
2023-02-02T05:30:14.161Z,14.50
2023-02-02T05:32:41.707Z,14.77
2023-02-02T05:35:09.866Z,20.00
2023-02-02T05:37:37.452Z,16.60
2023-02-02T05:40:05.771Z,17.33
2023-02-02T05:42:32.937Z,20.00
2023-02-02T05:45:00.114Z,12.63
2023-02-02T05:47:27.940Z,13.37
2023-02-02T05:49:55.104Z,16.20
2023-02-02T05:52:48.209Z,15.60
2023-02-02T05:55:15.499Z,9.83
2023-02-02T05:57:42.663Z,13.37
2023-02-02T06:00:10.952Z,13.20
2023-02-02T06:02:40.810Z,14.43
2023-02-02T06:05:08.228Z,11.53
2023-02-02T06:07:36.014Z,17.30
2023-02-02T06:10:03.615Z,16.23
2023-02-02T06:12:31.821Z,15.10
2023-02-02T06:14:59.099Z,14.70
2023-02-02T06:17:26.296Z,15.07
2023-02-02T06:19:53.493Z,23.23
2023-02-02T06:22:20.679Z,20.60
2023-02-02T06:24:47.910Z,12.33
2023-02-02T06:27:15.151Z,19.50
2023-02-02T06:29:42.366Z,16.60
2023-02-02T06:32:09.897Z,16.30
2023-02-02T06:34:37.715Z,18.53
2023-02-02T06:37:04.863Z,18.97
2023-02-02T06:39:32.006Z,20.30
2023-02-02T06:42:02.031Z,15.43
2023-02-02T06:44:33.873Z,22.13
2023-02-02T06:47:01.055Z,19.33
2023-02-02T06:49:28.456Z,15.53
2023-02-02T06:51:55.646Z,27.97
2023-02-02T06:54:22.784Z,16.63
2023-02-02T06:56:49.969Z,14.37
2023-02-02T06:59:17.120Z,12.33
2023-02-02T07:01:44.281Z,13.50
2023-02-02T07:04:11.529Z,18.37
2023-02-02T07:06:39.743Z,15.87
2023-02-02T07:09:06.904Z,13.70
2023-02-02T07:11:36.168Z,10.80
2023-02-02T07:14:07.034Z,13.77
2023-02-02T07:16:35.083Z,12.40
2023-02-02T07:19:02.455Z,21.57
2023-02-02T07:21:36.322Z,13.43
2023-02-02T07:24:05.693Z,13.43
2023-02-02T07:26:35.335Z,12.93
2023-02-02T07:29:04.373Z,16.77
2023-02-02T07:31:34.097Z,21.60
2023-02-02T07:34:04.016Z,12.20
2023-02-02T07:36:31.213Z,16.60
2023-02-02T07:38:59.791Z,12.63
2023-02-02T07:41:29.491Z,14.83
2023-02-02T07:43:56.681Z,14.23
2023-02-02T07:46:23.909Z,16.80
2023-02-02T07:48:55.224Z,15.73
2023-02-02T07:51:23.274Z,13.83
2023-02-02T07:53:53.553Z,18.40
2023-02-02T07:56:23.881Z,14.43
2023-02-02T07:58:55.422Z,19.07
2023-02-02T08:01:25.896Z,12.13
2023-02-02T08:03:54.491Z,20.67
2023-02-02T08:06:31.308Z,23.93
2023-02-02T08:08:59.778Z,13.33
2023-02-02T08:11:28.203Z,16.97
2023-02-02T08:13:57.581Z,21.73
2023-02-02T08:16:25.842Z,16.13
2023-02-02T08:18:53.287Z,18.03
2023-02-02T08:21:21.189Z,12.33
2023-02-02T08:23:48.714Z,22.40
2023-02-02T08:26:22.203Z,19.33
2023-02-02T08:28:54.324Z,16.57
2023-02-02T08:31:32.935Z,12.63
2023-02-02T08:34:00.260Z,12.00
2023-02-02T08:36:29.953Z,10.57
2023-02-02T08:39:03.273Z,8.60
2023-02-02T08:41:30.638Z,13.00
2023-02-02T08:43:58.416Z,17.03
2023-02-02T08:46:25.740Z,8.40
2023-02-02T08:48:52.963Z,11.57
2023-02-02T08:51:20.368Z,13.83
2023-02-02T08:53:47.900Z,12.23
2023-02-02T08:56:20.111Z,15.30
2023-02-02T08:58:53.073Z,10.50
2023-02-02T09:01:23.757Z,12.60
2023-02-02T09:03:56.052Z,9.60
2023-02-02T09:06:28.081Z,14.70
2023-02-02T09:08:55.437Z,13.50
2023-02-02T09:11:22.636Z,10.90
2023-02-02T09:13:57.262Z,8.90
2023-02-02T09:16:26.920Z,11.60
2023-02-02T09:18:55.590Z,11.83
2023-02-02T09:21:23.016Z,15.90
2023-02-02T09:23:52.970Z,12.07
2023-02-02T09:26:20.179Z,5.67
2023-02-02T09:28:50.346Z,10.97
2023-02-02T09:31:17.966Z,10.43
2023-02-02T09:33:45.709Z,8.07
2023-02-02T09:36:18.098Z,15.13
2023-02-02T09:38:45.335Z,7.80
2023-02-02T09:41:36.529Z,7.57
2023-02-02T09:44:22.648Z,9.23
2023-02-02T09:47:27.597Z,12.30
2023-02-02T09:50:09.958Z,7.30
2023-02-02T09:52:51.703Z,8.03
2023-02-02T09:55:31.410Z,8.60
2023-02-02T09:58:10.859Z,7.50
2023-02-02T10:00:43.885Z,10.90
2023-02-02T10:03:19.195Z,7.80
2023-02-02T10:05:50.216Z,8.77
2023-02-02T10:08:34.400Z,7.93
2023-02-02T10:11:13.122Z,10.83
2023-02-02T10:13:43.525Z,4.40
2023-02-02T10:16:17.525Z,8.33
2023-02-02T10:19:01.747Z,8.33
2023-02-02T10:21:59.673Z,9.80
2023-02-02T10:24:29.754Z,8.57
2023-02-02T10:27:11.359Z,8.10
2023-02-02T10:29:56.211Z,5.83
2023-02-02T10:32:47.561Z,8.87
2023-02-02T10:35:37.126Z,12.53
2023-02-02T10:38:37.953Z,6.50
2023-02-02T10:41:25.550Z,6.67
2023-02-02T10:44:06.855Z,6.77
2023-02-02T10:46:42.584Z,6.40
2023-02-02T10:49:33.681Z,6.63
2023-02-02T10:52:26.616Z,4.00
2023-02-02T10:55:04.005Z,4.60
2023-02-02T10:57:53.307Z,2.87
2023-02-02T11:00:39.029Z,7.07
2023-02-02T11:03:09.945Z,4.60
2023-02-02T11:05:56.828Z,4.20
2023-02-02T11:08:40.745Z,4.43
2023-02-02T11:11:19.727Z,2.97
2023-02-02T11:13:57.928Z,3.93
2023-02-02T11:16:38.911Z,6.00
2023-02-02T11:19:24.151Z,3.23
2023-02-02T11:21:54.475Z,3.43
2023-02-02T11:24:31.422Z,4.60
2023-02-02T11:27:18.118Z,1.37
2023-02-02T11:29:52.037Z,6.93
2023-02-02T11:32:29.474Z,3.07
2023-02-02T11:35:09.129Z,5.60
2023-02-02T11:37:38.256Z,4.73
2023-02-02T11:40:31.636Z,3.87
2023-02-02T11:43:20.740Z,4.90
2023-02-02T11:46:02.836Z,2.33
2023-02-02T11:48:37.851Z,3.30
2023-02-02T11:51:08.045Z,4.67
2023-02-02T11:53:47.875Z,5.10
2023-02-02T11:56:26.172Z,4.40
2023-02-02T11:58:56.378Z,2.63
2023-02-02T12:01:34.939Z,2.80
2023-02-02T12:04:24.192Z,7.87
2023-02-02T12:06:51.536Z,5.23
2023-02-02T12:09:24.778Z,6.17
2023-02-02T12:12:29.915Z,4.50
2023-02-02T12:15:30.663Z,5.40
2023-02-02T12:18:13.488Z,3.40
2023-02-02T12:21:03.398Z,2.30
2023-02-02T12:23:46.058Z,2.97
2023-02-02T12:26:21.408Z,3.13
2023-02-02T12:29:18.687Z,6.13
2023-02-02T12:31:51.998Z,7.33
2023-02-02T12:34:44.120Z,1.77
2023-02-02T12:37:51.650Z,7.40
2023-02-02T12:40:44.363Z,3.77
2023-02-02T12:43:27.934Z,1.70
2023-02-02T12:46:12.609Z,2.63
2023-02-02T12:48:58.850Z,3.47
2023-02-02T12:51:45.857Z,4.03
2023-02-02T12:54:56.230Z,4.40
2023-02-02T12:58:07.516Z,5.43
2023-02-02T13:00:49.704Z,3.33
2023-02-02T13:03:52.707Z,3.80
2023-02-02T13:06:29.571Z,4.60
2023-02-02T13:09:14.005Z,3.10
2023-02-02T13:12:09.532Z,4.67
2023-02-02T13:14:48.085Z,2.10
2023-02-02T13:17:23.993Z,6.25
2023-02-02T13:19:55.509Z,1.90
2023-02-02T13:22:28.963Z,5.17
2023-02-02T13:25:01.400Z,4.67
2023-02-02T13:27:30.564Z,5.57
2023-02-02T13:30:04.096Z,3.67
2023-02-02T13:32:36.160Z,2.00
2023-02-02T13:35:17.661Z,6.40
2023-02-02T13:37:49.280Z,3.93
2023-02-02T13:40:24.384Z,5.40
2023-02-02T13:43:04.524Z,2.63
2023-02-02T13:46:04.986Z,5.20
2023-02-02T13:48:53.413Z,4.70
2023-02-02T13:51:54.854Z,4.97
2023-02-02T13:54:59.671Z,3.90
2023-02-02T13:57:59.134Z,1.43
2023-02-02T14:00:32.021Z,4.73
2023-02-02T14:03:05.976Z,5.30
2023-02-02T14:05:41.443Z,3.90
2023-02-02T14:08:11.811Z,3.20
2023-02-02T14:10:54.355Z,3.50
2023-02-02T14:14:02.771Z,5.00
2023-02-02T14:16:32.774Z,3.60
2023-02-02T14:19:04.972Z,3.97
2023-02-02T14:21:32.889Z,2.93
2023-02-02T14:24:04.905Z,5.03
2023-02-02T14:26:54.895Z,6.27
2023-02-02T14:29:29.389Z,2.40
2023-02-02T14:31:58.969Z,2.60
2023-02-02T14:34:30.930Z,6.73
2023-02-02T14:37:28.639Z,3.33
2023-02-02T14:40:06.939Z,4.00
2023-02-02T14:43:14.874Z,2.53
2023-02-02T14:45:49.405Z,3.50
2023-02-02T14:48:22.388Z,1.90
2023-02-02T14:50:56.623Z,5.07
2023-02-02T14:53:39.550Z,5.87
2023-02-02T14:56:14.971Z,2.93
2023-02-02T14:58:51.395Z,3.43
2023-02-02T15:01:22.795Z,6.33
2023-02-02T15:04:17.511Z,4.20
2023-02-02T15:06:46.073Z,4.30
2023-02-02T15:09:29.259Z,4.10
2023-02-02T15:12:02.886Z,4.67
2023-02-02T15:14:38.652Z,5.40
2023-02-02T15:17:33.137Z,5.23
2023-02-02T15:20:21.869Z,3.47
2023-02-02T15:23:19.025Z,8.40
2023-02-02T15:26:12.356Z,5.73
2023-02-02T15:29:00.123Z,4.10
2023-02-02T15:31:40.205Z,8.90
2023-02-02T15:34:27.820Z,5.87
2023-02-02T15:36:58.846Z,4.50
2023-02-02T15:39:41.093Z,8.20
2023-02-02T15:42:36.181Z,4.97
2023-02-02T15:45:03.810Z,6.63
2023-02-02T15:47:34.994Z,4.37
2023-02-02T15:50:17.731Z,7.30
2023-02-02T15:52:50.579Z,7.40
2023-02-02T15:55:36.145Z,5.87
2023-02-02T15:58:21.825Z,2.87
2023-02-02T16:00:56.281Z,7.43
2023-02-02T16:03:30.893Z,3.50
2023-02-02T16:05:58.644Z,6.47
2023-02-02T16:08:29.776Z,6.20
2023-02-02T16:11:19.759Z,5.50
2023-02-02T16:14:04.897Z,8.37
2023-02-02T16:16:37.199Z,5.53
2023-02-02T16:19:22.020Z,6.83
2023-02-02T16:22:02.676Z,4.40
2023-02-02T16:24:33.877Z,8.43
2023-02-02T16:27:05.619Z,3.63
2023-02-02T16:29:34.583Z,8.57
2023-02-02T16:32:02.357Z,3.50
2023-02-02T16:34:41.975Z,3.60
2023-02-02T16:37:22.415Z,4.37
2023-02-02T16:39:49.886Z,4.90
2023-02-02T16:42:29.276Z,3.23
2023-02-02T16:45:00.209Z,5.57
2023-02-02T16:47:29.176Z,4.77
2023-02-02T16:50:08.646Z,6.43
2023-02-02T16:53:04.935Z,9.43
2023-02-02T16:55:49.298Z,6.53
2023-02-02T16:58:23.200Z,6.60
2023-02-02T17:01:13.991Z,12.37
2023-02-02T17:03:55.020Z,5.60
2023-02-02T17:06:45.847Z,6.63
2023-02-02T17:09:32.434Z,7.60
2023-02-02T17:12:09.227Z,7.60
2023-02-02T17:14:48.893Z,6.20
2023-02-02T17:17:16.051Z,7.60
2023-02-02T17:19:43.203Z,9.07
2023-02-02T17:22:11.239Z,9.90
2023-02-02T17:24:38.420Z,6.27
2023-02-02T17:27:05.655Z,13.10
2023-02-02T17:29:32.916Z,8.30
2023-02-02T17:32:00.517Z,6.07
2023-02-02T17:34:28.730Z,7.47
2023-02-02T17:36:55.887Z,10.40
2023-02-02T17:39:23.667Z,7.20
2023-02-02T17:41:51.486Z,5.33
2023-02-02T17:44:18.721Z,7.47
2023-02-02T17:46:45.967Z,10.60
2023-02-02T17:49:13.251Z,10.20
2023-02-02T17:51:43.373Z,12.47
2023-02-02T17:54:15.251Z,6.80
2023-02-02T17:56:43.501Z,9.60
2023-02-02T17:59:12.169Z,6.93
2023-02-02T18:01:41.493Z,4.83
2023-02-02T18:04:12.849Z,12.23
2023-02-02T18:06:40.195Z,9.87
2023-02-02T18:09:07.486Z,14.57
2023-02-02T18:11:34.727Z,8.93
2023-02-02T18:14:01.987Z,7.30
2023-02-02T18:16:29.267Z,8.10
2023-02-02T18:18:58.828Z,8.03
2023-02-02T18:21:29.861Z,5.13
2023-02-02T18:23:57.063Z,7.90
2023-02-02T18:26:24.378Z,6.57
2023-02-02T18:28:52.238Z,9.10
2023-02-02T18:31:21.415Z,9.00
2023-02-02T18:33:48.777Z,7.70
2023-02-02T18:36:19.854Z,11.20
2023-02-02T18:38:48.800Z,7.77
2023-02-02T18:41:17.916Z,12.60
2023-02-02T18:43:48.262Z,9.10
2023-02-02T18:46:16.649Z,13.30
2023-02-02T18:48:43.829Z,9.40
2023-02-02T18:51:17.927Z,8.70
2023-02-02T18:53:46.439Z,6.97
2023-02-02T18:56:14.593Z,6.83
2023-02-02T18:58:42.666Z,6.17
2023-02-02T19:01:13.683Z,7.60
2023-02-02T19:03:43.057Z,11.30
2023-02-02T19:06:28.987Z,7.03
2023-02-02T19:08:56.182Z,8.77
2023-02-02T19:11:26.555Z,8.47
2023-02-02T19:13:53.913Z,9.40
2023-02-02T19:16:29.839Z,6.73
2023-02-02T19:19:00.294Z,7.87
2023-02-02T19:21:30.378Z,6.40
2023-02-02T19:23:59.230Z,8.63
2023-02-02T19:26:28.171Z,16.53
2023-02-02T19:29:01.155Z,15.63
2023-02-02T19:31:29.092Z,12.30
2023-02-02T19:33:57.744Z,10.50
2023-02-02T19:36:27.709Z,11.73
2023-02-02T19:39:17.376Z,15.23
2023-02-02T19:41:44.709Z,14.83
2023-02-02T19:44:18.028Z,14.53
2023-02-02T19:46:50.839Z,11.23
2023-02-02T19:49:28.076Z,18.93
2023-02-02T19:51:58.135Z,12.03
2023-02-02T19:54:27.158Z,17.10
2023-02-02T19:57:10.791Z,9.90
2023-02-02T19:59:37.984Z,14.17
2023-02-02T20:02:43.252Z,11.57
2023-02-02T20:05:11.063Z,10.83
2023-02-02T20:07:38.957Z,10.43
2023-02-02T20:10:35.512Z,10.20
2023-02-02T20:13:14.685Z,13.00
2023-02-02T20:15:42.039Z,13.53
2023-02-02T20:18:24.408Z,13.77
2023-02-02T20:20:55.676Z,8.50
2023-02-02T20:23:40.419Z,11.03
2023-02-02T20:26:21.723Z,10.47
2023-02-02T20:28:50.046Z,16.67
2023-02-02T20:31:20.562Z,9.63
2023-02-02T20:33:51.903Z,11.83
2023-02-02T20:36:35.698Z,8.53
2023-02-02T20:39:25.098Z,11.60
2023-02-02T20:41:54.737Z,9.77
2023-02-02T20:44:22.068Z,9.73
2023-02-02T20:46:49.341Z,10.60
2023-02-02T20:49:17.107Z,9.97
2023-02-02T20:51:44.571Z,8.67
2023-02-02T20:54:11.910Z,9.03
2023-02-02T20:56:39.136Z,4.50
2023-02-02T20:59:07.409Z,6.93
2023-02-02T21:01:34.765Z,5.80
2023-02-02T21:04:05.230Z,9.60
2023-02-02T21:06:34.890Z,8.53
2023-02-02T21:09:03.579Z,7.67
2023-02-02T21:11:30.828Z,9.17
2023-02-02T21:13:59.911Z,11.63
2023-02-02T21:16:27.951Z,10.03
2023-02-02T21:18:55.184Z,8.03
2023-02-02T21:21:22.561Z,11.67
2023-02-02T21:23:51.487Z,12.10
2023-02-02T21:26:22.111Z,8.63
2023-02-02T21:28:49.773Z,8.83
2023-02-02T21:31:17.772Z,11.63
2023-02-02T21:33:47.055Z,6.53
2023-02-02T21:36:34.384Z,7.07
2023-02-02T21:39:20.223Z,6.77
2023-02-02T21:41:49.524Z,8.40
2023-02-02T21:44:22.280Z,3.37
2023-02-02T21:46:51.593Z,8.13
2023-02-02T21:49:25.330Z,13.93
2023-02-02T21:51:57.365Z,7.00
2023-02-02T21:54:27.114Z,9.03
2023-02-02T21:56:55.344Z,5.60
2023-02-02T21:59:28.301Z,8.30
2023-02-02T22:01:56.159Z,7.07
2023-02-02T22:04:26.337Z,7.93
2023-02-02T22:07:01.845Z,12.80
2023-02-02T22:09:39.499Z,9.10
2023-02-02T22:12:24.292Z,6.80
2023-02-02T22:15:00.297Z,9.97
2023-02-02T22:17:41.672Z,10.37
2023-02-02T22:20:15.013Z,10.13
2023-02-02T22:22:46.358Z,6.70
2023-02-02T22:25:16.578Z,7.37
2023-02-02T22:27:53.676Z,8.10
2023-02-02T22:30:32.782Z,11.40
2023-02-02T22:33:00.143Z,7.03
2023-02-02T22:35:27.794Z,6.80
2023-02-02T22:37:55.022Z,6.60
2023-02-02T22:40:22.721Z,7.40
2023-02-02T22:42:51.947Z,7.80
2023-02-02T22:45:19.194Z,7.63
2023-02-02T22:47:47.666Z,9.83
2023-02-02T22:50:16.581Z,12.83
2023-02-02T22:52:43.957Z,10.23
2023-02-02T22:55:12.199Z,7.47
2023-02-02T22:57:40.486Z,9.13
2023-02-02T23:00:16.575Z,11.37
2023-02-02T23:02:44.106Z,8.87
2023-02-02T23:05:13.327Z,8.17
2023-02-02T23:07:43.784Z,8.60
2023-02-02T23:10:17.111Z,11.27
2023-02-02T23:12:44.644Z,8.03
2023-02-02T23:15:13.118Z,11.77
2023-02-02T23:17:40.687Z,11.90
2023-02-02T23:20:12.399Z,13.30
2023-02-02T23:22:39.594Z,10.37
2023-02-02T23:25:07.364Z,9.30
2023-02-02T23:27:34.608Z,12.10
2023-02-02T23:30:03.988Z,10.87
2023-02-02T23:32:31.695Z,16.27
2023-02-02T23:34:59.086Z,16.77
2023-02-02T23:37:26.335Z,19.03
2023-02-02T23:39:53.493Z,17.27
2023-02-02T23:42:20.643Z,14.50
2023-02-02T23:44:48.232Z,13.17
2023-02-02T23:47:15.743Z,13.30
2023-02-02T23:49:43.587Z,21.27
2023-02-02T23:52:11.059Z,14.20
2023-02-02T23:54:39.432Z,15.70
2023-02-02T23:57:06.670Z,14.43
2023-02-02T23:59:33.811Z,17.10
